Time;durP1;ratioP1;P1;durP2;ratioP2;P2;SDS_P1;SDS_P2;PMS_P1;PMS_P2;Temp;Humidity;BMP_temperature;BMP_pressure;BME280_temperature;BME280_humidity;BME280_pressure;Samples;Min_cycle;Max_cycle;Signal;HPM_P1;HPM_P2
2021/05/09 00:01:30;;;;;;;4.30;3.90;;;;;;;;;;5010563;28;20476;-96
2021/05/09 00:03:57;;;;;;;5.17;3.90;;;;;;;;;;5012806;28;20448;-96
2021/05/09 00:06:25;;;;;;;4.23;3.73;;;;;;;;;;5012551;28;20472;-96
2021/05/09 00:08:52;;;;;;;4.40;4.00;;;;;;;;;;5012857;28;20453;-96
2021/05/09 00:11:19;;;;;;;6.13;3.77;;;;;;;;;;5008880;28;20547;-96
2021/05/09 00:13:53;;;;;;;4.50;3.60;;;;;;;;;;5011285;28;20450;-96
2021/05/09 00:16:19;;;;;;;6.63;4.00;;;;;;;;;;5014795;28;20456;-96
2021/05/09 00:18:48;;;;;;;3.97;3.57;;;;;;;;;;5018294;28;20522;-96
2021/05/09 00:24:17;;;;;;;6.20;4.70;;;;;;;;;;5280079;23;20492;-96
2021/05/09 00:26:44;;;;;;;5.10;3.80;;;;;;;;;;5010894;28;20470;-96
2021/05/09 00:31:52;;;;;;;5.33;3.50;;;;;;;;;;5726200;23;20516;-96
2021/05/09 00:39:54;;;;;;;4.13;3.83;;;;;;;;;;4971163;28;20518;-96
2021/05/09 00:45:30;;;;;;;4.00;3.60;;;;;;;;;;5013098;28;20480;-96
2021/05/09 00:59:14;;;;;;;4.30;3.87;;;;;;;;;;5033023;28;20459;-96
2021/05/09 01:04:17;;;;;;;3.97;3.30;;;;;;;;;;5057908;23;20490;-96
2021/05/09 01:06:44;;;;;;;3.40;3.10;;;;;;;;;;5028949;28;20432;-96
2021/05/09 01:12:15;;;;;;;4.30;3.87;;;;;;;;;;5161184;23;20486;-96
2021/05/09 01:14:41;;;;;;;5.53;3.20;;;;;;;;;;5027361;28;20455;-96
2021/05/09 01:17:08;;;;;;;5.00;3.90;;;;;;;;;;5026469;28;20521;-96
2021/05/09 01:19:39;;;;;;;3.13;2.90;;;;;;;;;;5024135;28;20464;-96
2021/05/09 01:22:07;;;;;;;3.87;3.57;;;;;;;;;;5010459;28;20456;-96
2021/05/09 01:24:33;;;;;;;4.87;4.03;;;;;;;;;;5027776;28;21930;-96
2021/05/09 01:26:59;;;;;;;4.20;3.90;;;;;;;;;;5070997;22;20495;-96
2021/05/09 01:29:25;;;;;;;5.37;4.40;;;;;;;;;;5029182;28;20420;-96
2021/05/09 01:31:52;;;;;;;4.33;3.93;;;;;;;;;;5026043;28;20919;-96
2021/05/09 01:34:19;;;;;;;4.43;4.10;;;;;;;;;;5029015;28;20440;-96
2021/05/09 01:36:45;;;;;;;4.23;3.83;;;;;;;;;;5027027;28;20777;-96
2021/05/09 01:39:12;;;;;;;5.00;4.30;;;;;;;;;;5028037;28;20451;-95
2021/05/09 01:41:39;;;;;;;4.53;3.73;;;;;;;;;;5024896;28;20490;-96
2021/05/09 01:44:07;;;;;;;4.53;4.13;;;;;;;;;;5029393;28;20456;-96
2021/05/09 01:46:33;;;;;;;7.10;4.03;;;;;;;;;;5018303;28;20464;-96
2021/05/09 01:48:59;;;;;;;5.83;3.67;;;;;;;;;;5006363;28;20455;-96
2021/05/09 01:51:25;;;;;;;5.17;4.63;;;;;;;;;;5025056;28;20497;-96
2021/05/09 01:53:52;;;;;;;4.57;4.10;;;;;;;;;;5018744;28;20471;-96
2021/05/09 01:56:19;;;;;;;6.23;4.43;;;;;;;;;;5026152;28;20463;-96
2021/05/09 01:58:45;;;;;;;7.30;5.27;;;;;;;;;;5026794;28;20488;-96
2021/05/09 02:01:12;;;;;;;6.10;5.60;;;;;;;;;;5030004;28;20463;-96
2021/05/09 02:06:21;;;;;;;6.00;5.30;;;;;;;;;;5015717;28;20448;-96
2021/05/09 02:16:47;;;;;;;5.73;4.83;;;;;;;;;;5229729;23;20556;-96
2021/05/09 02:19:14;;;;;;;4.83;4.40;;;;;;;;;;5008784;28;20442;-96
2021/05/09 02:21:42;;;;;;;5.47;4.43;;;;;;;;;;4988777;28;20938;-96
2021/05/09 02:24:09;;;;;;;5.07;4.53;;;;;;;;;;4993814;28;20453;-96
2021/05/09 02:26:35;;;;;;;5.00;4.27;;;;;;;;;;5004893;28;20445;-96
2021/05/09 02:29:01;;;;;;;5.23;4.70;;;;;;;;;;4980382;28;20480;-96
2021/05/09 02:31:27;;;;;;;5.13;4.60;;;;;;;;;;4990814;28;20451;-96
2021/05/09 02:33:55;;;;;;;4.47;4.10;;;;;;;;;;5008909;28;20463;-96
2021/05/09 02:36:21;;;;;;;4.77;4.27;;;;;;;;;;5020678;28;20456;-95
2021/05/09 02:38:48;;;;;;;4.00;3.70;;;;;;;;;;4992895;28;20501;-96
2021/05/09 02:41:14;;;;;;;4.80;4.30;;;;;;;;;;4981743;28;20441;-96
2021/05/09 02:55:28;;;;;;;4.97;4.57;;;;;;;;;;1040887;23;20799;-95
2021/05/09 02:57:55;;;;;;;4.60;3.80;;;;;;;;;;4992396;28;20485;-96
2021/05/09 03:00:23;;;;;;;4.50;4.10;;;;;;;;;;4998660;28;20448;-96
2021/05/09 03:07:59;;;;;;;8.00;4.70;;;;;;;;;;5684498;23;20474;-96
2021/05/09 03:13:02;;;;;;;4.83;4.33;;;;;;;;;;5318498;23;20488;-96
2021/05/09 03:15:28;;;;;;;5.27;4.30;;;;;;;;;;5022678;28;20436;-96
2021/05/09 03:17:55;;;;;;;5.60;5.10;;;;;;;;;;5039296;28;20495;-96
2021/05/09 03:20:21;;;;;;;5.90;4.67;;;;;;;;;;5033363;28;20448;-96
2021/05/09 03:27:58;;;;;;;5.43;4.80;;;;;;;;;;5333070;23;20515;-96
2021/05/09 03:30:25;;;;;;;5.90;4.97;;;;;;;;;;5032300;28;20459;-96
2021/05/09 03:35:34;;;;;;;5.43;4.20;;;;;;;;;;5198348;23;20495;-96
2021/05/09 03:46:45;;;;;;;6.00;4.60;;;;;;;;;;5355910;23;20488;-96
2021/05/09 03:49:13;;;;;;;5.07;4.57;;;;;;;;;;4997805;28;20480;-96
2021/05/09 03:51:39;;;;;;;5.30;4.50;;;;;;;;;;4981881;28;20429;-96
2021/05/09 03:54:06;;;;;;;4.57;4.17;;;;;;;;;;4996358;28;20454;-96
2021/05/09 03:56:32;;;;;;;4.90;4.50;;;;;;;;;;5095396;23;20485;-96
2021/05/09 03:58:59;;;;;;;5.73;5.13;;;;;;;;;;5007824;28;20471;-96
2021/05/09 04:01:25;;;;;;;6.47;4.80;;;;;;;;;;5036707;28;20439;-96
2021/05/09 04:03:51;;;;;;;6.90;4.90;;;;;;;;;;5037787;28;20462;-96
2021/05/09 04:06:18;;;;;;;6.40;5.47;;;;;;;;;;5018743;28;20493;-95
2021/05/09 04:12:08;;;;;;;5.50;5.00;;;;;;;;;;5334731;23;20495;-96
2021/05/09 04:14:35;;;;;;;5.53;4.70;;;;;;;;;;5163682;23;20467;-96
2021/05/09 04:17:01;;;;;;;4.60;4.20;;;;;;;;;;5030548;28;20475;-96
2021/05/09 04:19:28;;;;;;;5.47;4.90;;;;;;;;;;5010167;28;20440;-96
2021/05/09 04:22:07;;;;;;;5.13;4.63;;;;;;;;;;5027053;28;20432;-96
2021/05/09 04:24:48;;;;;;;5.33;4.83;;;;;;;;;;5028671;28;20505;-96
2021/05/09 04:27:15;;;;;;;6.97;5.77;;;;;;;;;;5027870;28;20456;-96
2021/05/09 04:29:41;;;;;;;5.30;4.77;;;;;;;;;;5027167;28;20519;-96
2021/05/09 04:32:07;;;;;;;5.07;4.57;;;;;;;;;;5025364;28;20474;-96
2021/05/09 04:34:33;;;;;;;5.50;5.00;;;;;;;;;;5026722;28;20456;-96
2021/05/09 04:37:00;;;;;;;4.77;4.10;;;;;;;;;;5022904;28;20448;-96
2021/05/09 04:39:44;;;;;;;5.33;4.83;;;;;;;;;;5032096;28;20443;-96
2021/05/09 04:45:13;;;;;;;4.70;4.30;;;;;;;;;;5045718;23;20465;-96
2021/05/09 04:47:40;;;;;;;6.53;5.20;;;;;;;;;;5019695;28;20452;-96
2021/05/09 04:50:07;;;;;;;5.03;4.50;;;;;;;;;;5041902;28;20457;-96
2021/05/09 04:52:34;;;;;;;5.43;4.93;;;;;;;;;;5034481;28;20468;-96
2021/05/09 04:55:00;;;;;;;5.77;5.20;;;;;;;;;;5010771;28;20474;-96
2021/05/09 04:57:26;;;;;;;5.70;5.20;;;;;;;;;;5016075;28;20479;-96
2021/05/09 04:59:52;;;;;;;6.30;5.67;;;;;;;;;;5027684;28;20471;-96
2021/05/09 05:02:21;;;;;;;6.30;5.33;;;;;;;;;;5019049;28;20487;-96
2021/05/09 05:04:54;;;;;;;5.93;5.43;;;;;;;;;;5047201;28;20518;-96
2021/05/09 05:07:21;;;;;;;7.87;5.93;;;;;;;;;;5045264;28;20489;-96
2021/05/09 05:09:48;;;;;;;5.97;5.47;;;;;;;;;;5031679;28;20453;-96
2021/05/09 05:15:19;;;;;;;6.27;5.67;;;;;;;;;;5031145;28;20463;-96
2021/05/09 05:18:13;;;;;;;6.00;5.40;;;;;;;;;;5020620;28;20477;-96
2021/05/09 05:20:40;;;;;;;6.60;5.37;;;;;;;;;;5013036;28;20514;-96
2021/05/09 05:23:06;;;;;;;6.37;5.80;;;;;;;;;;5015353;28;20953;-95
2021/05/09 05:25:33;;;;;;;7.50;6.40;;;;;;;;;;5018835;28;20463;-94
2021/05/09 05:28:00;;;;;;;7.87;6.20;;;;;;;;;;5035285;28;20460;-95
2021/05/09 05:30:26;;;;;;;6.00;5.40;;;;;;;;;;5027775;28;20457;-96
2021/05/09 05:32:52;;;;;;;6.17;5.60;;;;;;;;;;5007079;28;20455;-94
2021/05/09 05:35:18;;;;;;;5.80;5.20;;;;;;;;;;5006371;28;20472;-94
2021/05/09 05:37:44;;;;;;;6.17;5.50;;;;;;;;;;5004498;28;20488;-96
2021/05/09 05:40:11;;;;;;;9.10;6.10;;;;;;;;;;5027810;28;20500;-96
2021/05/09 05:42:40;;;;;;;4.90;4.40;;;;;;;;;;5033965;23;20504;-96
2021/05/09 05:45:09;;;;;;;5.80;5.20;;;;;;;;;;5010240;28;20465;-96
2021/05/09 05:50:01;;;;;;;5.18;4.75;;;;;;;;;;5038661;23;20516;-96
2021/05/09 05:52:42;;;;;;;6.60;4.30;;;;;;;;;;5026360;28;20216;-96
2021/05/09 05:55:15;;;;;;;5.50;5.00;;;;;;;;;;5029154;28;20448;-96
2021/05/09 05:57:42;;;;;;;6.77;4.30;;;;;;;;;;5012809;28;20482;-95
2021/05/09 06:00:09;;;;;;;4.93;4.50;;;;;;;;;;5014567;28;20463;-96
2021/05/09 06:02:35;;;;;;;5.23;4.23;;;;;;;;;;5029547;28;20465;-96
2021/05/09 06:05:01;;;;;;;5.73;5.00;;;;;;;;;;5026573;28;20462;-95
2021/05/09 06:07:29;;;;;;;6.27;4.77;;;;;;;;;;5026659;28;20460;-96
2021/05/09 06:09:55;;;;;;;4.90;4.30;;;;;;;;;;5029406;28;20438;-96
2021/05/09 06:12:21;;;;;;;4.10;3.80;;;;;;;;;;5028199;28;20465;-96
2021/05/09 06:14:48;;;;;;;4.53;4.10;;;;;;;;;;5026719;28;20444;-96
2021/05/09 06:17:14;;;;;;;3.97;3.70;;;;;;;;;;5030086;28;20466;-96
2021/05/09 06:22:21;;;;;;;6.40;4.37;;;;;;;;;;5028984;28;20463;-96
2021/05/09 06:24:47;;;;;;;4.43;4.07;;;;;;;;;;5022362;28;20471;-96
2021/05/09 06:27:13;;;;;;;6.97;4.10;;;;;;;;;;5028284;28;20441;-96
2021/05/09 06:29:40;;;;;;;4.53;4.10;;;;;;;;;;5066825;23;20469;-96
2021/05/09 06:32:13;;;;;;;4.37;4.07;;;;;;;;;;5036816;28;20447;-96
2021/05/09 06:34:42;;;;;;;6.73;4.00;;;;;;;;;;5039110;28;20440;-96
2021/05/09 06:37:14;;;;;;;6.23;3.80;;;;;;;;;;5038481;28;20454;-94
2021/05/09 06:39:40;;;;;;;5.30;4.60;;;;;;;;;;5031964;28;20482;-96
2021/05/09 06:42:07;;;;;;;4.10;3.70;;;;;;;;;;5030061;28;20461;-95
2021/05/09 06:44:35;;;;;;;4.93;3.43;;;;;;;;;;5033139;28;20458;-96
2021/05/09 06:47:05;;;;;;;4.83;4.43;;;;;;;;;;5035139;23;20503;-96
2021/05/09 06:49:35;;;;;;;3.83;3.53;;;;;;;;;;5037990;28;20469;-95
2021/05/09 06:52:04;;;;;;;5.40;4.00;;;;;;;;;;5032770;28;20452;-96
2021/05/09 06:54:31;;;;;;;3.67;3.37;;;;;;;;;;5029722;28;20477;-95
2021/05/09 06:56:58;;;;;;;4.77;3.90;;;;;;;;;;5026649;28;20467;-94
2021/05/09 06:59:41;;;;;;;4.20;3.90;;;;;;;;;;5031286;28;20439;-93
2021/05/09 07:02:07;;;;;;;6.90;3.83;;;;;;;;;;5032799;28;20490;-96
2021/05/09 07:04:34;;;;;;;4.50;4.00;;;;;;;;;;5031594;28;20828;-96
2021/05/09 07:07:08;;;;;;;6.20;3.73;;;;;;;;;;5031288;28;20424;-97
2021/05/09 07:09:34;;;;;;;5.97;3.73;;;;;;;;;;5032460;28;20480;-96
2021/05/09 07:12:00;;;;;;;4.00;3.70;;;;;;;;;;5032861;23;20582;-96
2021/05/09 07:14:27;;;;;;;4.03;3.43;;;;;;;;;;5030685;28;20460;-96
2021/05/09 07:16:53;;;;;;;4.67;3.37;;;;;;;;;;5017662;28;20451;-96
2021/05/09 07:22:04;;;;;;;3.40;3.03;;;;;;;;;;5028169;28;20455;-96
2021/05/09 07:24:30;;;;;;;3.80;3.30;;;;;;;;;;5022268;28;20463;-94
2021/05/09 07:26:57;;;;;;;4.67;3.43;;;;;;;;;;5026482;28;20440;-96
2021/05/09 07:29:27;;;;;;;4.47;3.60;;;;;;;;;;5031286;28;20464;-96
2021/05/09 07:31:54;;;;;;;5.90;3.40;;;;;;;;;;5006320;28;20455;-96
2021/05/09 07:34:20;;;;;;;5.17;3.70;;;;;;;;;;5019503;28;20467;-95
2021/05/09 07:36:47;;;;;;;5.87;4.30;;;;;;;;;;5030884;28;20452;-95
2021/05/09 07:39:14;;;;;;;5.40;3.70;;;;;;;;;;5023689;28;20499;-96
2021/05/09 07:41:40;;;;;;;4.60;4.20;;;;;;;;;;5009344;28;20456;-94
2021/05/09 07:44:09;;;;;;;5.30;4.00;;;;;;;;;;5027281;28;20455;-96
2021/05/09 07:46:35;;;;;;;6.50;4.40;;;;;;;;;;5028463;28;20436;-96
2021/05/09 07:49:01;;;;;;;5.77;3.97;;;;;;;;;;5031282;28;20451;-96
2021/05/09 07:51:28;;;;;;;5.03;4.30;;;;;;;;;;5012320;28;20454;-96
2021/05/09 07:54:10;;;;;;;4.40;3.90;;;;;;;;;;5022659;28;20459;-96
2021/05/09 07:56:38;;;;;;;4.27;3.80;;;;;;;;;;5004718;28;20502;-96
2021/05/09 07:59:06;;;;;;;4.30;3.83;;;;;;;;;;4998660;28;20499;-95
2021/05/09 08:01:46;;;;;;;4.40;4.00;;;;;;;;;;5023028;28;20506;-96
2021/05/09 08:04:12;;;;;;;5.80;5.30;;;;;;;;;;5022202;28;20532;-96
2021/05/09 08:06:41;;;;;;;5.83;3.67;;;;;;;;;;5026336;28;20456;-95
2021/05/09 08:09:09;;;;;;;3.80;3.47;;;;;;;;;;5027914;28;20442;-96
2021/05/09 08:14:32;;;;;;;4.70;3.37;;;;;;;;;;4978129;28;20497;-96
2021/05/09 08:16:58;;;;;;;6.03;4.30;;;;;;;;;;4962366;28;22131;-94
2021/05/09 08:19:24;;;;;;;8.00;3.57;;;;;;;;;;4998852;23;20502;-95
2021/05/09 08:21:54;;;;;;;3.93;3.53;;;;;;;;;;5005081;28;20449;-94
2021/05/09 08:24:24;;;;;;;5.03;3.27;;;;;;;;;;5009210;28;20436;-96
2021/05/09 08:26:51;;;;;;;5.07;3.23;;;;;;;;;;5010899;28;20471;-94
2021/05/09 08:31:59;;;;;;;3.57;3.17;;;;;;;;;;5018919;28;20474;-96
2021/05/09 08:34:25;;;;;;;6.07;3.20;;;;;;;;;;5006637;28;20472;-95
2021/05/09 08:36:53;;;;;;;4.17;3.40;;;;;;;;;;5000338;28;20465;-96
2021/05/09 08:39:20;;;;;;;5.17;2.90;;;;;;;;;;4987193;28;20499;-96
2021/05/09 08:41:50;;;;;;;3.20;2.70;;;;;;;;;;5009717;28;20455;-95
2021/05/09 08:44:17;;;;;;;3.60;3.10;;;;;;;;;;5027283;28;20427;-96
2021/05/09 08:46:45;;;;;;;2.80;2.60;;;;;;;;;;5011843;28;20971;-96
2021/05/09 08:49:13;;;;;;;2.83;2.63;;;;;;;;;;5007856;28;21146;-94
2021/05/09 08:51:39;;;;;;;3.23;2.83;;;;;;;;;;4996361;28;20455;-92
2021/05/09 08:54:06;;;;;;;3.47;3.07;;;;;;;;;;5003756;28;20463;-92
2021/05/09 08:56:32;;;;;;;3.10;2.80;;;;;;;;;;5024704;23;20557;-94
2021/05/09 08:58:58;;;;;;;6.93;2.57;;;;;;;;;;5022233;28;20500;-94
2021/05/09 09:01:29;;;;;;;2.60;2.20;;;;;;;;;;5027435;28;20459;-96
2021/05/09 09:03:55;;;;;;;3.30;2.60;;;;;;;;;;5018506;28;20477;-96
2021/05/09 09:06:36;;;;;;;2.30;2.10;;;;;;;;;;5018999;28;20449;-96
2021/05/09 09:09:06;;;;;;;5.17;2.70;;;;;;;;;;5011038;28;20450;-95
2021/05/09 09:11:32;;;;;;;3.67;2.67;;;;;;;;;;5009153;28;20468;-93
2021/05/09 09:14:09;;;;;;;2.97;2.33;;;;;;;;;;5015052;28;20455;-96
2021/05/09 09:16:35;;;;;;;3.00;2.80;;;;;;;;;;5013810;28;20520;-93
2021/05/09 09:19:08;;;;;;;2.40;2.23;;;;;;;;;;5007494;28;21303;-92
2021/05/09 09:21:34;;;;;;;3.27;2.53;;;;;;;;;;5011081;28;20459;-91
2021/05/09 09:24:15;;;;;;;2.43;2.23;;;;;;;;;;5009292;28;20452;-96
2021/05/09 09:26:43;;;;;;;3.00;2.50;;;;;;;;;;4993525;28;21228;-92
2021/05/09 09:29:22;;;;;;;2.53;2.33;;;;;;;;;;5012892;28;20946;-96
2021/05/09 09:31:51;;;;;;;2.60;2.07;;;;;;;;;;5019427;28;20818;-94
2021/05/09 09:34:17;;;;;;;2.80;2.20;;;;;;;;;;5018099;28;20463;-92
2021/05/09 09:36:43;;;;;;;2.63;2.43;;;;;;;;;;5021960;28;20461;-94
2021/05/09 09:39:10;;;;;;;2.50;2.23;;;;;;;;;;5018750;28;20496;-93
2021/05/09 09:41:44;;;;;;;2.33;2.23;;;;;;;;;;5022139;28;20530;-93
2021/05/09 09:44:11;;;;;;;2.40;2.30;;;;;;;;;;5018780;28;20495;-92
2021/05/09 09:46:38;;;;;;;2.83;2.20;;;;;;;;;;5020670;28;20483;-94
2021/05/09 09:49:17;;;;;;;2.50;2.30;;;;;;;;;;5018406;28;20903;-94
2021/05/09 09:51:48;;;;;;;4.70;2.27;;;;;;;;;;5021491;28;20451;-94
2021/05/09 09:54:29;;;;;;;2.20;2.07;;;;;;;;;;5020518;28;20452;-95
2021/05/09 09:56:55;;;;;;;2.80;2.27;;;;;;;;;;5048586;23;20499;-93
2021/05/09 09:59:31;;;;;;;2.40;2.20;;;;;;;;;;5037226;28;20498;-96
2021/05/09 10:01:57;;;;;;;2.40;2.20;;;;;;;;;;5027631;28;20459;-94
2021/05/09 10:04:23;;;;;;;2.10;1.90;;;;;;;;;;5032962;28;20459;-95
2021/05/09 10:06:49;;;;;;;2.70;2.40;;;;;;;;;;5003338;28;20469;-95
2021/05/09 10:09:15;;;;;;;2.63;2.20;;;;;;;;;;5009694;28;20506;-94
2021/05/09 10:11:41;;;;;;;2.50;2.30;;;;;;;;;;5044092;28;20465;-95
2021/05/09 10:14:09;;;;;;;2.27;2.10;;;;;;;;;;5042066;28;20459;-96
2021/05/09 10:16:37;;;;;;;3.27;2.10;;;;;;;;;;5029264;28;20464;-96
2021/05/09 10:19:05;;;;;;;2.93;1.90;;;;;;;;;;5022337;28;20493;-94
2021/05/09 10:21:31;;;;;;;2.10;2.00;;;;;;;;;;5005791;28;20460;-94
2021/05/09 10:24:14;;;;;;;2.47;2.10;;;;;;;;;;4999966;28;20976;-95
2021/05/09 10:26:44;;;;;;;2.10;2.00;;;;;;;;;;5024387;28;20453;-93
2021/05/09 10:29:25;;;;;;;2.30;2.20;;;;;;;;;;5038893;28;21104;-94
2021/05/09 10:31:52;;;;;;;2.10;2.00;;;;;;;;;;5007207;28;20671;-93
2021/05/09 10:34:51;;;;;;;2.70;2.23;;;;;;;;;;5002079;28;20452;-94
2021/05/09 10:37:34;;;;;;;2.30;2.20;;;;;;;;;;5034036;28;20867;-96
2021/05/09 10:40:20;;;;;;;2.37;2.00;;;;;;;;;;5043674;28;20473;-93
2021/05/09 10:42:47;;;;;;;2.43;2.20;;;;;;;;;;5012365;28;20443;-94
2021/05/09 10:45:27;;;;;;;2.40;2.20;;;;;;;;;;5025859;28;20456;-93
2021/05/09 10:48:14;;;;;;;2.87;2.00;;;;;;;;;;5021505;28;20440;-96
2021/05/09 10:50:40;;;;;;;2.17;2.07;;;;;;;;;;5043127;28;20462;-93
2021/05/09 10:53:06;;;;;;;3.57;2.60;;;;;;;;;;5005580;28;20452;-93
2021/05/09 10:55:43;;;;;;;2.23;2.03;;;;;;;;;;5005865;28;20487;-94
2021/05/09 10:58:10;;;;;;;2.10;1.97;;;;;;;;;;5003792;28;20492;-94
2021/05/09 11:00:57;;;;;;;2.27;2.17;;;;;;;;;;5005715;28;20463;-92
2021/05/09 11:03:41;;;;;;;2.00;1.90;;;;;;;;;;4975772;28;20464;-94
2021/05/09 11:06:07;;;;;;;2.90;2.30;;;;;;;;;;5000490;28;20472;-92
2021/05/09 11:08:55;;;;;;;2.23;2.03;;;;;;;;;;5037201;28;20458;-94
2021/05/09 11:11:22;;;;;;;2.10;1.90;;;;;;;;;;5029573;28;20460;-95
2021/05/09 11:14:04;;;;;;;2.30;2.10;;;;;;;;;;5011405;28;20483;-95
2021/05/09 11:16:31;;;;;;;3.47;1.90;;;;;;;;;;5028206;28;21022;-93
2021/05/09 11:18:57;;;;;;;2.87;2.30;;;;;;;;;;5036308;28;21377;-95
2021/05/09 11:21:23;;;;;;;3.80;2.33;;;;;;;;;;5042890;28;20454;-94
2021/05/09 11:23:51;;;;;;;2.40;2.20;;;;;;;;;;5040882;28;20467;-94
2021/05/09 11:26:20;;;;;;;2.50;2.23;;;;;;;;;;5040624;28;20489;-95
2021/05/09 11:29:03;;;;;;;3.83;2.20;;;;;;;;;;5019115;28;20533;-96
2021/05/09 11:31:29;;;;;;;6.03;2.63;;;;;;;;;;5013047;28;20456;-92
2021/05/09 11:33:55;;;;;;;2.27;2.07;;;;;;;;;;5025631;28;20458;-94
2021/05/09 11:36:25;;;;;;;3.40;2.30;;;;;;;;;;5015633;28;20475;-93
2021/05/09 11:38:52;;;;;;;2.00;1.90;;;;;;;;;;5026365;28;20518;-94
2021/05/09 11:41:19;;;;;;;2.20;2.07;;;;;;;;;;5020327;28;20466;-94
2021/05/09 11:44:00;;;;;;;2.53;2.33;;;;;;;;;;5022420;28;20491;-94
2021/05/09 11:46:34;;;;;;;2.20;2.10;;;;;;;;;;5016121;28;20716;-93
2021/05/09 11:49:13;;;;;;;2.50;2.30;;;;;;;;;;5032259;28;20467;-95
2021/05/09 11:51:47;;;;;;;2.40;2.00;;;;;;;;;;5031159;28;20461;-96
2021/05/09 11:54:16;;;;;;;2.23;2.13;;;;;;;;;;5027655;28;20440;-95
2021/05/09 11:56:52;;;;;;;3.30;2.10;;;;;;;;;;5042576;28;20486;-93
2021/05/09 11:59:31;;;;;;;2.20;2.00;;;;;;;;;;5037652;28;21004;-94
2021/05/09 12:02:00;;;;;;;2.00;1.90;;;;;;;;;;5040561;28;20462;-94
2021/05/09 12:04:30;;;;;;;3.17;2.00;;;;;;;;;;5025619;28;20467;-93
2021/05/09 12:06:57;;;;;;;3.83;2.33;;;;;;;;;;5004049;28;20452;-94
2021/05/09 12:09:23;;;;;;;2.33;2.20;;;;;;;;;;5008481;28;20461;-95
2021/05/09 12:11:49;;;;;;;2.00;1.90;;;;;;;;;;5006472;28;20531;-96
2021/05/09 12:14:19;;;;;;;2.60;2.40;;;;;;;;;;5003403;28;20461;-94
2021/05/09 12:16:46;;;;;;;2.30;2.07;;;;;;;;;;5011152;23;20535;-95
2021/05/09 12:19:14;;;;;;;2.20;2.10;;;;;;;;;;4983555;28;20597;-93
2021/05/09 12:21:53;;;;;;;2.67;2.47;;;;;;;;;;5002093;28;20453;-94
2021/05/09 12:24:19;;;;;;;2.20;2.00;;;;;;;;;;5003669;28;20463;-96
2021/05/09 12:26:56;;;;;;;2.13;2.03;;;;;;;;;;4997169;28;20461;-93
2021/05/09 12:29:21;;;;;;;3.37;2.27;;;;;;;;;;5002721;28;20835;-94
2021/05/09 12:31:48;;;;;;;2.27;2.17;;;;;;;;;;5001214;28;20539;-94
2021/05/09 12:34:25;;;;;;;2.40;2.30;;;;;;;;;;5008962;28;20464;-95
2021/05/09 12:37:04;;;;;;;2.20;2.00;;;;;;;;;;4998971;28;21264;-93
2021/05/09 12:39:31;;;;;;;2.97;2.50;;;;;;;;;;5004411;28;20496;-96
2021/05/09 12:42:01;;;;;;;2.60;2.40;;;;;;;;;;4984721;28;20452;-95
2021/05/09 12:44:27;;;;;;;2.33;2.20;;;;;;;;;;4999698;28;20458;-96
2021/05/09 12:46:53;;;;;;;2.37;2.27;;;;;;;;;;4998369;28;20456;-96
2021/05/09 12:49:21;;;;;;;2.77;2.57;;;;;;;;;;5002947;28;20533;-95
2021/05/09 12:51:48;;;;;;;2.33;2.13;;;;;;;;;;5000359;28;20452;-95
2021/05/09 12:54:29;;;;;;;2.00;1.90;;;;;;;;;;5003034;28;20460;-95
2021/05/09 12:57:12;;;;;;;4.90;2.07;;;;;;;;;;4990596;28;20507;-92
2021/05/09 12:59:47;;;;;;;2.03;1.80;;;;;;;;;;5001895;28;20496;-96
2021/05/09 13:02:19;;;;;;;2.20;2.00;;;;;;;;;;5005660;28;20584;-95
2021/05/09 13:04:48;;;;;;;2.63;2.20;;;;;;;;;;5006267;28;21145;-95
2021/05/09 13:07:15;;;;;;;2.50;2.10;;;;;;;;;;4993369;28;21065;-94
2021/05/09 13:09:42;;;;;;;2.50;2.27;;;;;;;;;;5003457;28;20457;-96
2021/05/09 13:12:08;;;;;;;2.57;2.30;;;;;;;;;;4999621;28;20484;-94
2021/05/09 13:14:41;;;;;;;2.40;2.20;;;;;;;;;;5005480;28;20511;-96
2021/05/09 13:17:07;;;;;;;2.37;2.10;;;;;;;;;;5003259;28;20489;-95
2021/05/09 13:19:34;;;;;;;2.30;2.10;;;;;;;;;;5008148;28;20500;-96
2021/05/09 13:22:16;;;;;;;3.10;2.30;;;;;;;;;;4998513;28;20437;-96
2021/05/09 13:24:45;;;;;;;2.20;2.10;;;;;;;;;;5006343;28;20453;-95
2021/05/09 13:27:11;;;;;;;2.50;2.30;;;;;;;;;;4995844;28;20461;-95
2021/05/09 13:29:37;;;;;;;3.77;2.80;;;;;;;;;;4990422;28;20451;-94
2021/05/09 13:32:04;;;;;;;2.70;2.50;;;;;;;;;;4996451;28;20518;-95
2021/05/09 13:34:31;;;;;;;2.33;2.23;;;;;;;;;;5005671;28;20440;-96
2021/05/09 13:36:58;;;;;;;2.47;2.10;;;;;;;;;;5006647;28;20461;-96
2021/05/09 13:39:25;;;;;;;2.70;2.27;;;;;;;;;;5006337;28;20492;-96
2021/05/09 13:41:52;;;;;;;2.63;2.40;;;;;;;;;;5005209;28;20445;-95
2021/05/09 13:44:21;;;;;;;2.73;2.57;;;;;;;;;;4995208;28;20445;-96
2021/05/09 13:46:48;;;;;;;4.00;2.20;;;;;;;;;;4998837;28;20477;-96
2021/05/09 13:49:14;;;;;;;3.83;2.10;;;;;;;;;;4997659;28;20552;-95
2021/05/09 13:51:40;;;;;;;2.10;2.00;;;;;;;;;;5003840;28;20528;-95
2021/05/09 13:54:06;;;;;;;2.80;2.40;;;;;;;;;;5008392;28;20479;-95
2021/05/09 13:56:35;;;;;;;2.70;2.50;;;;;;;;;;5004923;28;20457;-94
2021/05/09 13:59:08;;;;;;;3.20;2.47;;;;;;;;;;5003704;28;20492;-93
2021/05/09 14:01:37;;;;;;;2.50;2.40;;;;;;;;;;5003541;28;20445;-96
2021/05/09 14:04:18;;;;;;;2.90;2.70;;;;;;;;;;4995985;28;20449;-96
2021/05/09 14:06:45;;;;;;;2.50;2.30;;;;;;;;;;4994617;28;20472;-96
2021/05/09 14:12:19;;;;;;;3.00;2.80;;;;;;;;;;5009292;28;20471;-96
2021/05/09 14:14:52;;;;;;;3.10;2.90;;;;;;;;;;5002104;28;20449;-94
2021/05/09 14:17:19;;;;;;;3.23;2.83;;;;;;;;;;5050113;23;20565;-96
2021/05/09 14:19:45;;;;;;;3.50;2.90;;;;;;;;;;5036273;28;20486;-94
2021/05/09 14:22:11;;;;;;;2.80;2.60;;;;;;;;;;5052664;28;20443;-96
2021/05/09 14:24:37;;;;;;;6.30;3.40;;;;;;;;;;5034590;28;20455;-94
2021/05/09 14:27:04;;;;;;;6.57;2.80;;;;;;;;;;5023874;28;20482;-96
2021/05/09 14:29:31;;;;;;;3.40;3.10;;;;;;;;;;5037049;28;20442;-96
2021/05/09 14:32:02;;;;;;;4.03;3.03;;;;;;;;;;5054703;28;20459;-96
2021/05/09 14:34:32;;;;;;;3.20;2.90;;;;;;;;;;5194247;23;20503;-96
2021/05/09 14:36:58;;;;;;;2.93;2.73;;;;;;;;;;5030905;28;20439;-96
2021/05/09 14:39:24;;;;;;;3.50;3.20;;;;;;;;;;5016512;28;20487;-95
2021/05/09 14:41:52;;;;;;;3.40;3.10;;;;;;;;;;5031652;28;20459;-96
2021/05/09 14:44:19;;;;;;;4.17;3.37;;;;;;;;;;5027783;28;20454;-95
2021/05/09 14:47:01;;;;;;;3.40;3.10;;;;;;;;;;5026612;28;20444;-96
2021/05/09 14:49:28;;;;;;;3.07;2.87;;;;;;;;;;5022109;28;20483;-96
2021/05/09 14:51:56;;;;;;;3.50;3.20;;;;;;;;;;5024688;28;20475;-96
2021/05/09 14:54:22;;;;;;;3.70;3.50;;;;;;;;;;5023075;28;20483;-96
2021/05/09 14:57:00;;;;;;;3.80;3.50;;;;;;;;;;5028376;28;20464;-96
2021/05/09 14:59:27;;;;;;;3.80;3.40;;;;;;;;;;5032165;23;20502;-96
2021/05/09 15:02:00;;;;;;;3.80;3.50;;;;;;;;;;5010479;28;20451;-96
2021/05/09 15:04:40;;;;;;;3.50;3.20;;;;;;;;;;5075625;23;20475;-95
2021/05/09 15:09:47;;;;;;;4.20;3.90;;;;;;;;;;5137903;23;20478;-96
2021/05/09 15:12:17;;;;;;;5.67;3.50;;;;;;;;;;5087588;23;20499;-96
2021/05/09 15:14:43;;;;;;;4.20;3.90;;;;;;;;;;5032608;28;20439;-96
2021/05/09 15:17:10;;;;;;;3.70;3.40;;;;;;;;;;5041646;23;20511;-96
2021/05/09 15:19:44;;;;;;;3.90;3.60;;;;;;;;;;5035435;28;20475;-96
2021/05/09 15:22:11;;;;;;;5.90;3.63;;;;;;;;;;5087069;23;20555;-94
2021/05/09 15:24:40;;;;;;;3.83;3.57;;;;;;;;;;5043590;28;20442;-96
2021/05/09 15:27:12;;;;;;;11.10;4.23;;;;;;;;;;5026889;28;20524;-96
2021/05/09 15:29:45;;;;;;;5.40;4.13;;;;;;;;;;5025323;28;20447;-96
2021/05/09 15:32:13;;;;;;;5.90;4.10;;;;;;;;;;5031410;28;20461;-94
2021/05/09 15:34:43;;;;;;;4.50;3.87;;;;;;;;;;5023667;28;20452;-96
2021/05/09 15:37:18;;;;;;;4.10;3.80;;;;;;;;;;5011629;28;20479;-94
2021/05/09 15:39:48;;;;;;;4.23;3.93;;;;;;;;;;5029949;28;20495;-93
2021/05/09 15:44:55;;;;;;;5.23;4.73;;;;;;;;;;5050100;23;20568;-96
2021/05/09 15:47:25;;;;;;;4.50;4.10;;;;;;;;;;5017999;28;20448;-96
2021/05/09 15:49:51;;;;;;;4.63;4.20;;;;;;;;;;5029969;28;20460;-94
2021/05/09 15:52:17;;;;;;;4.40;4.10;;;;;;;;;;5029010;28;20474;-94
2021/05/09 15:54:43;;;;;;;8.60;5.00;;;;;;;;;;5031489;28;20452;-96
2021/05/09 15:57:16;;;;;;;4.40;4.10;;;;;;;;;;5034235;28;20466;-96
2021/05/09 15:59:46;;;;;;;4.57;4.20;;;;;;;;;;5030398;28;20517;-95
2021/05/09 16:02:33;;;;;;;4.37;4.07;;;;;;;;;;5028817;28;20535;-96
2021/05/09 16:05:08;;;;;;;7.73;4.50;;;;;;;;;;5027629;28;20823;-96
2021/05/09 16:10:20;;;;;;;4.90;4.50;;;;;;;;;;5031401;28;20450;-96
2021/05/09 16:12:50;;;;;;;5.23;4.90;;;;;;;;;;5030589;28;20456;-94
2021/05/09 16:15:26;;;;;;;5.57;5.07;;;;;;;;;;5028258;28;20459;-96
2021/05/09 16:18:09;;;;;;;5.70;5.20;;;;;;;;;;5031069;28;20446;-96
2021/05/09 16:20:38;;;;;;;5.60;5.17;;;;;;;;;;5028954;28;20681;-95
2021/05/09 16:23:04;;;;;;;5.47;4.97;;;;;;;;;;5016964;23;20890;-96
2021/05/09 16:25:32;;;;;;;6.00;5.13;;;;;;;;;;5009180;28;20442;-96
2021/05/09 16:27:59;;;;;;;5.90;5.30;;;;;;;;;;4999421;28;20441;-96
2021/05/09 16:30:26;;;;;;;5.47;5.07;;;;;;;;;;5009120;28;20432;-95
2021/05/09 16:32:52;;;;;;;5.23;4.80;;;;;;;;;;5009074;28;20445;-96
2021/05/09 16:35:18;;;;;;;10.50;4.93;;;;;;;;;;5007518;28;20467;-96
2021/05/09 16:37:45;;;;;;;6.87;4.90;;;;;;;;;;5006040;28;20457;-95
2021/05/09 16:40:11;;;;;;;6.40;5.80;;;;;;;;;;5004422;28;20524;-96
2021/05/09 16:42:37;;;;;;;5.70;5.20;;;;;;;;;;5005150;28;20512;-96
2021/05/09 16:45:04;;;;;;;6.33;5.73;;;;;;;;;;5007813;28;20465;-96
2021/05/09 16:47:30;;;;;;;5.80;5.40;;;;;;;;;;5000491;28;20432;-96